Jolly Good — V7UG7 — position and weather

sailwx.info

Track history (hours):
 
Tides and Currents Weather Stations Pressure Air Temp Water Temp Dewpoint Dewpoint Depression Visibility Wind Speed Wind Dir Waves Ship Positions

Jolly Good

Last reported at 2017-Oct-17 18:41 UTC. Time now 2017-Oct-19 09:21 UTC.
Position N 36°57' W 076°24'.

Length 190 m; draft 6.8 m.

Type: Cargo ship. MMSI: 538007006.

Date/timePositionNaut miles runAvg speedWind from/ knotsBaromVisibWave heightAir tempDewpointWater temp
2017-Oct-17 18:41N 36°57' W 076°24'3 9.0
2017-Oct-17 18:19N 36°58' W 076°20'411.1
2017-Oct-17 17:59N 37°00' W 076°16'511.2
2017-Oct-17 17:30N 36°59' W 076°10'611.9
2017-Oct-17 17:00N 36°57' W 076°03'611.5
2017-Oct-17 16:30N 36°57' W 075°55'4 7.3
2017-Oct-17 16:00N 36°57' W 075°51'114 2.5
2017-Oct-15 17:42N 38°03' W 073°53'3 6.7
2017-Oct-15 17:18N 38°05' W 073°55'411.9
2017-Oct-15 16:59N 38°08' W 073°59'712.4
2017-Oct-15 16:28N 38°12' W 074°05'511.9
2017-Oct-15 16:00N 38°16' W 074°10'611.1
2017-Oct-15 15:30N 38°20' W 074°15'612.0
2017-Oct-15 15:00N 38°23' W 074°21'8 0.7
2017-Oct-15 03:49N 38°28' W 074°29'0 0.0
2017-Oct-15 01:58N 38°28' W 074°29'0 0.0
2017-Oct-15 00:34N 38°28' W 074°29'0 0.0
2017-Oct-14 20:10N 38°28' W 074°29'0 0.0
2017-Oct-14 19:22N 38°28' W 074°29'0 0.0
2017-Oct-14 18:34N 38°28' W 074°29'0 0.2
2017-Oct-14 18:28N 38°28' W 074°29'35 1.0
2017-Oct-13 09:06N 38°49' W 075°04'311.0
2017-Oct-13 08:51N 38°52' W 075°05'512.5
2017-Oct-13 08:27N 38°57' W 075°07'612.5
2017-Oct-13 08:00N 39°02' W 075°09'612.2
2017-Oct-13 07:30N 39°07' W 075°13'612.0
2017-Oct-13 07:00N 39°12' W 075°17'612.1
2017-Oct-13 06:30N 39°17' W 075°22'612.5
2017-Oct-13 06:00N 39°22' W 075°27'713.0
2017-Oct-13 05:30N 39°27' W 075°33'613.0
2017-Oct-13 05:01N 39°33' W 075°32'4 8.7
2017-Oct-13 04:30N 39°37' W 075°35'613.0
2017-Oct-13 04:00N 39°43' W 075°30'612.5
2017-Oct-13 03:30N 39°48' W 075°26'611.2
2017-Oct-13 03:01N 39°51' W 075°20'510.3
2017-Oct-13 02:30N 39°52' W 075°13'4 8.0
2017-Oct-13 02:00N 39°54' W 075°08'4 7.1
2017-Oct-13 01:30N 39°57' W 075°08'4 7.7
2017-Oct-13 01:00N 39°59' W 075°04'4 8.3
2017-Oct-13 00:31N 40°02' W 074°60'5 9.5
2017-Oct-13 00:01N 40°04' W 074°54'4 8.1
2017-Oct-12 23:31N 40°07' W 074°50'3 6.9
2017-Oct-12 23:01N 40°08' W 074°46'0 0.3
2017-Oct-12 22:30N 40°08' W 074°46'2 5.0
2017-Oct-12 22:01N 40°08' W 074°49'0 0.1
2017-Oct-12 21:29N 40°08' W 074°49'0 0.0
2017-Oct-12 20:59N 40°08' W 074°49'0 0.0
2017-Oct-12 20:26N 40°08' W 074°49'0 0.0
2017-Oct-12 19:56N 40°08' W 074°49'0 0.0
2017-Oct-12 19:26N 40°08' W 074°49'0 0.0
2017-Oct-12 18:56N 40°08' W 074°49'0 0.0
2017-Oct-12 18:20N 40°08' W 074°49'0 0.0
2017-Oct-12 17:59N 40°08' W 074°49'0 0.0
2017-Oct-12 17:26N 40°08' W 074°49'0 0.0
2017-Oct-12 16:59N 40°08' W 074°49'0 0.0
2017-Oct-12 16:23N 40°08' W 074°49'0 0.0
2017-Oct-12 15:59N 40°08' W 074°49'0 0.0
2017-Oct-12 15:29N 40°08' W 074°49'0 0.0
2017-Oct-12 14:59N 40°08' W 074°49'0 0.0
2017-Oct-12 14:29N 40°08' W 074°49'0 0.0
2017-Oct-12 13:59N 40°08' W 074°49'0 0.0
2017-Oct-12 13:29N 40°08' W 074°49'0 0.0
2017-Oct-12 12:53N 40°08' W 074°49'0 0.0
2017-Oct-12 12:23N 40°08' W 074°49'0 0.0
2017-Oct-12 11:53N 40°08' W 074°49'0 0.0
2017-Oct-12 11:29N 40°08' W 074°49'0 0.0
2017-Oct-12 10:59N 40°08' W 074°49'0 0.0
2017-Oct-12 10:29N 40°08' W 074°49'0 0.0
2017-Oct-12 09:59N 40°08' W 074°49'0 0.0
2017-Oct-12 09:29N 40°08' W 074°49'0 0.0
2017-Oct-12 08:59N 40°08' W 074°49'0 0.0
2017-Oct-12 08:29N 40°08' W 074°49'0 0.0
2017-Oct-12 07:53N 40°08' W 074°49'0 0.0
2017-Oct-12 07:29N 40°08' W 074°49'0 0.0
2017-Oct-12 06:59N 40°08' W 074°49'0 0.0
2017-Oct-12 06:29N 40°08' W 074°49'0 0.0
2017-Oct-12 05:59N 40°08' W 074°49'0 0.0
2017-Oct-12 05:29N 40°08' W 074°49'0 0.0
2017-Oct-12 04:59N 40°08' W 074°49'0 0.0
2017-Oct-12 04:26N 40°08' W 074°49'0 0.0
2017-Oct-12 03:59N 40°08' W 074°49'0 0.0
2017-Oct-12 03:29N 40°08' W 074°49'0 0.0
2017-Oct-12 02:59N 40°08' W 074°49'0 0.0
2017-Oct-12 02:29N 40°08' W 074°49'0 0.0
2017-Oct-12 01:59N 40°08' W 074°49'0 0.0
2017-Oct-12 01:17N 40°08' W 074°49'0 0.0
2017-Oct-12 00:56N 40°08' W 074°49'0 0.0
2017-Oct-12 00:26N 40°08' W 074°49'0 0.0
2017-Oct-11 23:56N 40°08' W 074°49'0 0.0
2017-Oct-11 23:17N 40°08' W 074°49'0 0.0
2017-Oct-11 22:53N 40°08' W 074°49'0 0.0
2017-Oct-11 22:17N 40°08' W 074°49'0 0.0
2017-Oct-11 21:56N 40°08' W 074°49'0 0.0
2017-Oct-11 21:26N 40°08' W 074°49'0 0.0
2017-Oct-11 20:56N 40°08' W 074°49'0 0.0
2017-Oct-11 20:29N 40°08' W 074°49'0 0.0
2017-Oct-11 19:56N 40°08' W 074°49'0 0.0
2017-Oct-11 19:23N 40°08' W 074°49'0 0.0
2017-Oct-11 18:56N 40°08' W 074°49'0 0.0
2017-Oct-11 18:29N 40°08' W 074°49'0 0.0
2017-Oct-11 17:56N 40°08' W 074°49'0 0.0
2017-Oct-11 17:23N 40°08' W 074°49'0 0.0
2017-Oct-11 16:59N 40°08' W 074°49'0 0.0
2017-Oct-10 23:59N 40°08' W 074°49'0 0.0
2017-Oct-10 23:29N 40°08' W 074°49'0 0.0
2017-Oct-10 22:59N 40°08' W 074°49'0 0.0
2017-Oct-10 22:29N 40°08' W 074°49'0 0.0
2017-Oct-10 19:56N 40°08' W 074°49'0 0.0
2017-Oct-10 19:29N 40°08' W 074°49'0 0.0
2017-Oct-10 18:56N 40°08' W 074°49'0 0.0
2017-Oct-10 18:29N 40°08' W 074°49'0 0.0
2017-Oct-10 17:47N 40°08' W 074°49'0 0.0
2017-Oct-10 17:29N 40°08' W 074°49'0 0.0
2017-Oct-10 16:56N 40°08' W 074°49'0 0.0
2017-Oct-10 16:26N 40°08' W 074°49'0 0.0
2017-Oct-10 15:56N 40°08' W 074°49'0 0.0
2017-Oct-10 15:24N 40°08' W 074°49'0 0.0
2017-Oct-10 14:56N 40°08' W 074°49'0 0.0
2017-Oct-10 13:59N 40°08' W 074°49'0 0.0
2017-Oct-10 13:26N 40°08' W 074°49'0 0.0
2017-Oct-10 12:59N 40°08' W 074°49'0 0.0
2017-Oct-10 12:29N 40°08' W 074°49'0 0.0
2017-Oct-10 11:56N 40°08' W 074°49'0 0.0
2017-Oct-10 11:29N 40°08' W 074°49'0 0.0
2017-Oct-10 10:59N 40°08' W 074°49'0 0.0
2017-Oct-10 10:29N 40°08' W 074°49'0 0.0
2017-Oct-10 09:56N 40°08' W 074°49'0 0.0
2017-Oct-10 09:29N 40°08' W 074°49'0 0.0
2017-Oct-10 08:59N 40°08' W 074°49'0 0.0
2017-Oct-10 08:29N 40°08' W 074°49'0 0.0
2017-Oct-10 07:59N 40°08' W 074°49'0 0.0
2017-Oct-10 07:29N 40°08' W 074°49'0 0.0
2017-Oct-10 06:56N 40°08' W 074°49'0 0.0
2017-Oct-10 06:29N 40°08' W 074°49'0 0.0
2017-Oct-10 05:53N 40°08' W 074°49'0 0.0
2017-Oct-10 05:29N 40°08' W 074°49'0 0.0
2017-Oct-10 04:59N 40°08' W 074°49'0 0.0
2017-Oct-10 04:29N 40°08' W 074°49'0 0.0
2017-Oct-10 03:59N 40°08' W 074°49'0 0.0
2017-Oct-10 03:29N 40°08' W 074°49'0 0.0
2017-Oct-10 02:59N 40°08' W 074°49'0 0.0
2017-Oct-10 02:26N 40°08' W 074°49'0 0.0
2017-Oct-10 01:59N 40°08' W 074°49'0 0.0
2017-Oct-10 01:29N 40°08' W 074°49'0 0.0
2017-Oct-10 00:59N 40°08' W 074°49'0 0.0
2017-Oct-10 00:29N 40°08' W 074°49'0 0.0
2017-Oct-09 23:59N 40°08' W 074°49'0 0.0
2017-Oct-09 23:29N 40°08' W 074°49'0 0.0
2017-Oct-09 22:59N 40°08' W 074°49'0 0.0
2017-Oct-09 22:29N 40°08' W 074°49'0 0.0
2017-Oct-09 21:59N 40°08' W 074°49'0 0.0
2017-Oct-09 21:29N 40°08' W 074°49'0 0.0
2017-Oct-09 20:59N 40°08' W 074°49'0 0.0
2017-Oct-09 20:29N 40°08' W 074°49'0 0.0
2017-Oct-09 19:59N 40°08' W 074°49'0 0.0
2017-Oct-09 19:29N 40°08' W 074°49'0 0.0
2017-Oct-09 18:59N 40°08' W 074°49'0 0.0
2017-Oct-09 18:29N 40°08' W 074°49'0 0.0
2017-Oct-09 17:59N 40°08' W 074°49'0 0.0
2017-Oct-09 17:29N 40°08' W 074°49'0 0.0
2017-Oct-09 16:59N 40°08' W 074°49'0 0.0
2017-Oct-09 16:29N 40°08' W 074°49'0 0.0
2017-Oct-09 15:59N 40°08' W 074°49'0 0.0
2017-Oct-09 15:29N 40°08' W 074°49'0 0.0
2017-Oct-09 14:59N 40°08' W 074°49'0 0.0
2017-Oct-09 14:29N 40°08' W 074°49'0 0.0
2017-Oct-09 13:59N 40°08' W 074°49'0 0.0
2017-Oct-09 13:29N 40°08' W 074°49'0 0.0
2017-Oct-09 12:59N 40°08' W 074°49'0 0.0
2017-Oct-09 12:29N 40°08' W 074°49'0 0.0
2017-Oct-09 11:59N 40°08' W 074°49'0 0.0
2017-Oct-09 11:29N 40°08' W 074°49'0 0.0
2017-Oct-09 10:59N 40°08' W 074°49'0 0.0
2017-Oct-09 10:26N 40°08' W 074°49'0 0.0
2017-Oct-09 09:59N 40°08' W 074°49'0 0.0
2017-Oct-09 09:26N 40°08' W 074°49'0 0.0
2017-Oct-09 08:59N 40°08' W 074°49'0 0.0
2017-Oct-09 08:29N 40°08' W 074°49'0 0.0
2017-Oct-09 07:56N 40°08' W 074°49'0 0.0
2017-Oct-09 07:29N 40°08' W 074°49'0 0.0
2017-Oct-09 06:53N 40°08' W 074°49'0 0.0
2017-Oct-09 06:29N 40°08' W 074°49'0 0.0
2017-Oct-09 05:59N 40°08' W 074°49'0 0.0
2017-Oct-09 05:29N 40°08' W 074°49'0 0.0
2017-Oct-09 04:56N 40°08' W 074°49'0 0.0
2017-Oct-09 04:29N 40°08' W 074°49'0 0.0
2017-Oct-09 03:59N 40°08' W 074°49'0 0.0
2017-Oct-09 03:29N 40°08' W 074°49'0 0.0
2017-Oct-09 02:59N 40°08' W 074°49'0 0.0
2017-Oct-09 02:20N 40°08' W 074°49'0 0.0
2017-Oct-09 01:59N 40°08' W 074°49'0 0.0
2017-Oct-09 01:29N 40°08' W 074°49'0 0.0
2017-Oct-09 00:59N 40°08' W 074°49'0 0.0
2017-Oct-09 00:29N 40°08' W 074°49'0 0.0
2017-Oct-08 23:59N 40°08' W 074°49'0 0.0
2017-Oct-08 23:29N 40°08' W 074°49'0 0.0
2017-Oct-08 22:53N 40°08' W 074°49'0 0.0
2017-Oct-08 22:29N 40°08' W 074°49'0 0.0
2017-Oct-08 21:59N 40°08' W 074°49'0 0.0
2017-Oct-08 21:29N 40°08' W 074°49'0 0.0
2017-Oct-08 20:59N 40°08' W 074°49'0 0.0
2017-Oct-08 20:29N 40°08' W 074°49'0 0.0
2017-Oct-08 19:59N 40°08' W 074°49'0 0.0
2017-Oct-08 19:29N 40°08' W 074°49'0 0.0
2017-Oct-08 18:59N 40°08' W 074°49'0 0.0
2017-Oct-08 18:29N 40°08' W 074°49'0 0.0
2017-Oct-08 17:59N 40°08' W 074°49'0 0.0
2017-Oct-08 17:29N 40°08' W 074°49'0 0.0
2017-Oct-08 16:59N 40°08' W 074°49'0 0.0
2017-Oct-08 16:29N 40°08' W 074°49'0 0.0
2017-Oct-08 15:59N 40°08' W 074°49'0 0.0
2017-Oct-08 15:29N 40°08' W 074°49'0 0.0
2017-Oct-08 14:59N 40°08' W 074°49'0 0.0
2017-Oct-08 14:29N 40°08' W 074°49'0 0.0
2017-Oct-08 13:59N 40°08' W 074°49'0 0.0
2017-Oct-08 13:29N 40°08' W 074°49'0 0.0
2017-Oct-08 12:59N 40°08' W 074°49'0 0.0
2017-Oct-08 12:29N 40°08' W 074°49'0 0.0
2017-Oct-08 11:56N 40°08' W 074°49'0 0.0
2017-Oct-08 11:29N 40°08' W 074°49'0 0.0
2017-Oct-08 10:59N 40°08' W 074°49'0 0.0
2017-Oct-08 10:29N 40°08' W 074°49'0 0.0
2017-Oct-08 09:59N 40°08' W 074°49'0 0.0
2017-Oct-08 09:29N 40°08' W 074°49'0 0.0
2017-Oct-08 08:59N 40°08' W 074°49'0 0.0
2017-Oct-08 08:29N 40°08' W 074°49'0 0.0
2017-Oct-08 07:59N 40°08' W 074°49'0 0.0
2017-Oct-08 07:29N 40°08' W 074°49'0 0.0
2017-Oct-08 06:59N 40°08' W 074°49'0 0.0
2017-Oct-08 06:29N 40°08' W 074°49'0 0.0
2017-Oct-08 05:59N 40°08' W 074°49'0 0.0
2017-Oct-08 05:29N 40°08' W 074°49'0 0.0
2017-Oct-08 04:59N 40°08' W 074°49'0 0.0
2017-Oct-08 04:17N 40°08' W 074°49'0 0.0
2017-Oct-08 03:59N 40°08' W 074°49'0 0.0
2017-Oct-08 03:23N 40°08' W 074°49'0 0.0
2017-Oct-08 02:56N 40°08' W 074°49'0 0.0
2017-Oct-08 02:29N 40°08' W 074°49'0 0.0
2017-Oct-08 01:59N 40°08' W 074°49'0 0.0
2017-Oct-08 01:29N 40°08' W 074°49'0 0.0
2017-Oct-08 00:59N 40°08' W 074°49'0 0.0
2017-Oct-08 00:29N 40°08' W 074°49'0 0.0
2017-Oct-07 23:59N 40°08' W 074°49'0 0.0
2017-Oct-07 23:29N 40°08' W 074°49'0 0.0
2017-Oct-07 22:59N 40°08' W 074°49'0 0.0
2017-Oct-07 22:29N 40°08' W 074°49'0 0.0
2017-Oct-07 21:59N 40°08' W 074°49'0 0.0
2017-Oct-07 21:29N 40°08' W 074°49'0 0.0
2017-Oct-07 20:59N 40°08' W 074°49'0 0.0
2017-Oct-07 20:29N 40°08' W 074°49'0 0.0
2017-Oct-07 19:59N 40°08' W 074°49'0 0.0
2017-Oct-07 19:29N 40°08' W 074°49'0 0.0
2017-Oct-07 18:59N 40°08' W 074°49'  
Track history (hours):
 
Tides and Currents Weather Stations Pressure Air Temp Water Temp Dewpoint Dewpoint Depression Visibility Wind Speed Wind Dir Waves Ship Positions

Jolly Good

Last reported at 2017-Oct-17 18:41 UTC. Time now 2017-Oct-19 09:21 UTC.
Position N 36°57' W 076°24'.

Length 190 m; draft 6.8 m.

Type: Cargo ship. MMSI: 538007006.

Date/timePositionNaut miles runAvg speedWind from/ knotsBaromVisibWave heightAir tempDewpointWater temp
2017-Oct-17 18:41N 36°57' W 076°24'3 9.0
2017-Oct-17 18:19N 36°58' W 076°20'411.1
2017-Oct-17 17:59N 37°00' W 076°16'511.2
2017-Oct-17 17:30N 36°59' W 076°10'611.9
2017-Oct-17 17:00N 36°57' W 076°03'611.5
2017-Oct-17 16:30N 36°57' W 075°55'4 7.3
2017-Oct-17 16:00N 36°57' W 075°51'114 2.5
2017-Oct-15 17:42N 38°03' W 073°53'3 6.7
2017-Oct-15 17:18N 38°05' W 073°55'411.9
2017-Oct-15 16:59N 38°08' W 073°59'712.4
2017-Oct-15 16:28N 38°12' W 074°05'511.9
2017-Oct-15 16:00N 38°16' W 074°10'611.1
2017-Oct-15 15:30N 38°20' W 074°15'612.0
2017-Oct-15 15:00N 38°23' W 074°21'8 0.7
2017-Oct-15 03:49N 38°28' W 074°29'0 0.0
2017-Oct-15 01:58N 38°28' W 074°29'0 0.0
2017-Oct-15 00:34N 38°28' W 074°29'0 0.0
2017-Oct-14 20:10N 38°28' W 074°29'0 0.0
2017-Oct-14 19:22N 38°28' W 074°29'0 0.0
2017-Oct-14 18:34N 38°28' W 074°29'0 0.2
2017-Oct-14 18:28N 38°28' W 074°29'35 1.0
2017-Oct-13 09:06N 38°49' W 075°04'311.0
2017-Oct-13 08:51N 38°52' W 075°05'512.5
2017-Oct-13 08:27N 38°57' W 075°07'612.5
2017-Oct-13 08:00N 39°02' W 075°09'612.2
2017-Oct-13 07:30N 39°07' W 075°13'612.0
2017-Oct-13 07:00N 39°12' W 075°17'612.1
2017-Oct-13 06:30N 39°17' W 075°22'612.5
2017-Oct-13 06:00N 39°22' W 075°27'713.0
2017-Oct-13 05:30N 39°27' W 075°33'613.0
2017-Oct-13 05:01N 39°33' W 075°32'4 8.7
2017-Oct-13 04:30N 39°37' W 075°35'613.0
2017-Oct-13 04:00N 39°43' W 075°30'612.5
2017-Oct-13 03:30N 39°48' W 075°26'611.2
2017-Oct-13 03:01N 39°51' W 075°20'510.3
2017-Oct-13 02:30N 39°52' W 075°13'4 8.0
2017-Oct-13 02:00N 39°54' W 075°08'4 7.1
2017-Oct-13 01:30N 39°57' W 075°08'4 7.7
2017-Oct-13 01:00N 39°59' W 075°04'4 8.3
2017-Oct-13 00:31N 40°02' W 074°60'5 9.5
2017-Oct-13 00:01N 40°04' W 074°54'4 8.1
2017-Oct-12 23:31N 40°07' W 074°50'3 6.9
2017-Oct-12 23:01N 40°08' W 074°46'0 0.3
2017-Oct-12 22:30N 40°08' W 074°46'2 5.0
2017-Oct-12 22:01N 40°08' W 074°49'0 0.1
2017-Oct-12 21:29N 40°08' W 074°49'0 0.0
2017-Oct-12 20:59N 40°08' W 074°49'0 0.0
2017-Oct-12 20:26N 40°08' W 074°49'0 0.0
2017-Oct-12 19:56N 40°08' W 074°49'0 0.0
2017-Oct-12 19:26N 40°08' W 074°49'0 0.0
2017-Oct-12 18:56N 40°08' W 074°49'0 0.0
2017-Oct-12 18:20N 40°08' W 074°49'0 0.0
2017-Oct-12 17:59N 40°08' W 074°49'0 0.0
2017-Oct-12 17:26N 40°08' W 074°49'0 0.0
2017-Oct-12 16:59N 40°08' W 074°49'0 0.0
2017-Oct-12 16:23N 40°08' W 074°49'0 0.0
2017-Oct-12 15:59N 40°08' W 074°49'0 0.0
2017-Oct-12 15:29N 40°08' W 074°49'0 0.0
2017-Oct-12 14:59N 40°08' W 074°49'0 0.0
2017-Oct-12 14:29N 40°08' W 074°49'0 0.0
2017-Oct-12 13:59N 40°08' W 074°49'0 0.0
2017-Oct-12 13:29N 40°08' W 074°49'0 0.0
2017-Oct-12 12:53N 40°08' W 074°49'0 0.0
2017-Oct-12 12:23N 40°08' W 074°49'0 0.0
2017-Oct-12 11:53N 40°08' W 074°49'0 0.0
2017-Oct-12 11:29N 40°08' W 074°49'0 0.0
2017-Oct-12 10:59N 40°08' W 074°49'0 0.0
2017-Oct-12 10:29N 40°08' W 074°49'0 0.0
2017-Oct-12 09:59N 40°08' W 074°49'0 0.0
2017-Oct-12 09:29N 40°08' W 074°49'0 0.0
2017-Oct-12 08:59N 40°08' W 074°49'0 0.0
2017-Oct-12 08:29N 40°08' W 074°49'0 0.0
2017-Oct-12 07:53N 40°08' W 074°49'0 0.0
2017-Oct-12 07:29N 40°08' W 074°49'0 0.0
2017-Oct-12 06:59N 40°08' W 074°49'0 0.0
2017-Oct-12 06:29N 40°08' W 074°49'0 0.0
2017-Oct-12 05:59N 40°08' W 074°49'0 0.0
2017-Oct-12 05:29N 40°08' W 074°49'0 0.0
2017-Oct-12 04:59N 40°08' W 074°49'0 0.0
2017-Oct-12 04:26N 40°08' W 074°49'0 0.0
2017-Oct-12 03:59N 40°08' W 074°49'0 0.0
2017-Oct-12 03:29N 40°08' W 074°49'0 0.0
2017-Oct-12 02:59N 40°08' W 074°49'0 0.0
2017-Oct-12 02:29N 40°08' W 074°49'0 0.0
2017-Oct-12 01:59N 40°08' W 074°49'0 0.0
2017-Oct-12 01:17N 40°08' W 074°49'0 0.0
2017-Oct-12 00:56N 40°08' W 074°49'0 0.0
2017-Oct-12 00:26N 40°08' W 074°49'0 0.0
2017-Oct-11 23:56N 40°08' W 074°49'0 0.0
2017-Oct-11 23:17N 40°08' W 074°49'0 0.0
2017-Oct-11 22:53N 40°08' W 074°49'0 0.0
2017-Oct-11 22:17N 40°08' W 074°49'0 0.0
2017-Oct-11 21:56N 40°08' W 074°49'0 0.0
2017-Oct-11 21:26N 40°08' W 074°49'0 0.0
2017-Oct-11 20:56N 40°08' W 074°49'0 0.0
2017-Oct-11 20:29N 40°08' W 074°49'0 0.0
2017-Oct-11 19:56N 40°08' W 074°49'0 0.0
2017-Oct-11 19:23N 40°08' W 074°49'0 0.0
2017-Oct-11 18:56N 40°08' W 074°49'0 0.0
2017-Oct-11 18:29N 40°08' W 074°49'0 0.0
2017-Oct-11 17:56N 40°08' W 074°49'0 0.0
2017-Oct-11 17:23N 40°08' W 074°49'0 0.0
2017-Oct-11 16:59N 40°08' W 074°49'0 0.0
2017-Oct-10 23:59N 40°08' W 074°49'0 0.0
2017-Oct-10 23:29N 40°08' W 074°49'0 0.0
2017-Oct-10 22:59N 40°08' W 074°49'0 0.0
2017-Oct-10 22:29N 40°08' W 074°49'0 0.0
2017-Oct-10 19:56N 40°08' W 074°49'0 0.0
2017-Oct-10 19:29N 40°08' W 074°49'0 0.0
2017-Oct-10 18:56N 40°08' W 074°49'0 0.0
2017-Oct-10 18:29N 40°08' W 074°49'0 0.0
2017-Oct-10 17:47N 40°08' W 074°49'0 0.0
2017-Oct-10 17:29N 40°08' W 074°49'0 0.0
2017-Oct-10 16:56N 40°08' W 074°49'0 0.0
2017-Oct-10 16:26N 40°08' W 074°49'0 0.0
2017-Oct-10 15:56N 40°08' W 074°49'0 0.0
2017-Oct-10 15:24N 40°08' W 074°49'0 0.0
2017-Oct-10 14:56N 40°08' W 074°49'0 0.0
2017-Oct-10 13:59N 40°08' W 074°49'0 0.0
2017-Oct-10 13:26N 40°08' W 074°49'0 0.0
2017-Oct-10 12:59N 40°08' W 074°49'0 0.0
2017-Oct-10 12:29N 40°08' W 074°49'0 0.0
2017-Oct-10 11:56N 40°08' W 074°49'0 0.0
2017-Oct-10 11:29N 40°08' W 074°49'0 0.0
2017-Oct-10 10:59N 40°08' W 074°49'0 0.0
2017-Oct-10 10:29N 40°08' W 074°49'0 0.0
2017-Oct-10 09:56N 40°08' W 074°49'0 0.0
2017-Oct-10 09:29N 40°08' W 074°49'0 0.0
2017-Oct-10 08:59N 40°08' W 074°49'0 0.0
2017-Oct-10 08:29N 40°08' W 074°49'0 0.0
2017-Oct-10 07:59N 40°08' W 074°49'0 0.0
2017-Oct-10 07:29N 40°08' W 074°49'0 0.0
2017-Oct-10 06:56N 40°08' W 074°49'0 0.0
2017-Oct-10 06:29N 40°08' W 074°49'0 0.0
2017-Oct-10 05:53N 40°08' W 074°49'0 0.0
2017-Oct-10 05:29N 40°08' W 074°49'0 0.0
2017-Oct-10 04:59N 40°08' W 074°49'0 0.0
2017-Oct-10 04:29N 40°08' W 074°49'0 0.0
2017-Oct-10 03:59N 40°08' W 074°49'0 0.0
2017-Oct-10 03:29N 40°08' W 074°49'0 0.0
2017-Oct-10 02:59N 40°08' W 074°49'0 0.0
2017-Oct-10 02:26N 40°08' W 074°49'0 0.0
2017-Oct-10 01:59N 40°08' W 074°49'0 0.0
2017-Oct-10 01:29N 40°08' W 074°49'0 0.0
2017-Oct-10 00:59N 40°08' W 074°49'0 0.0
2017-Oct-10 00:29N 40°08' W 074°49'0 0.0
2017-Oct-09 23:59N 40°08' W 074°49'0 0.0
2017-Oct-09 23:29N 40°08' W 074°49'0 0.0
2017-Oct-09 22:59N 40°08' W 074°49'0 0.0
2017-Oct-09 22:29N 40°08' W 074°49'0 0.0
2017-Oct-09 21:59N 40°08' W 074°49'0 0.0
2017-Oct-09 21:29N 40°08' W 074°49'0 0.0
2017-Oct-09 20:59N 40°08' W 074°49'0 0.0
2017-Oct-09 20:29N 40°08' W 074°49'0 0.0
2017-Oct-09 19:59N 40°08' W 074°49'0 0.0
2017-Oct-09 19:29N 40°08' W 074°49'0 0.0
2017-Oct-09 18:59N 40°08' W 074°49'0 0.0
2017-Oct-09 18:29N 40°08' W 074°49'0 0.0
2017-Oct-09 17:59N 40°08' W 074°49'0 0.0
2017-Oct-09 17:29N 40°08' W 074°49'0 0.0
2017-Oct-09 16:59N 40°08' W 074°49'0 0.0
2017-Oct-09 16:29N 40°08' W 074°49'0 0.0
2017-Oct-09 15:59N 40°08' W 074°49'0 0.0
2017-Oct-09 15:29N 40°08' W 074°49'0 0.0
2017-Oct-09 14:59N 40°08' W 074°49'0 0.0
2017-Oct-09 14:29N 40°08' W 074°49'0 0.0
2017-Oct-09 13:59N 40°08' W 074°49'0 0.0
2017-Oct-09 13:29N 40°08' W 074°49'0 0.0
2017-Oct-09 12:59N 40°08' W 074°49'0 0.0
2017-Oct-09 12:29N 40°08' W 074°49'0 0.0
2017-Oct-09 11:59N 40°08' W 074°49'0 0.0
2017-Oct-09 11:29N 40°08' W 074°49'0 0.0
2017-Oct-09 10:59N 40°08' W 074°49'0 0.0
2017-Oct-09 10:26N 40°08' W 074°49'0 0.0
2017-Oct-09 09:59N 40°08' W 074°49'0 0.0
2017-Oct-09 09:26N 40°08' W 074°49'0 0.0
2017-Oct-09 08:59N 40°08' W 074°49'0 0.0
2017-Oct-09 08:29N 40°08' W 074°49'0 0.0
2017-Oct-09 07:56N 40°08' W 074°49'0 0.0
2017-Oct-09 07:29N 40°08' W 074°49'0 0.0
2017-Oct-09 06:53N 40°08' W 074°49'0 0.0
2017-Oct-09 06:29N 40°08' W 074°49'0 0.0
2017-Oct-09 05:59N 40°08' W 074°49'0 0.0
2017-Oct-09 05:29N 40°08' W 074°49'0 0.0
2017-Oct-09 04:56N 40°08' W 074°49'0 0.0
2017-Oct-09 04:29N 40°08' W 074°49'0 0.0
2017-Oct-09 03:59N 40°08' W 074°49'0 0.0
2017-Oct-09 03:29N 40°08' W 074°49'0 0.0
2017-Oct-09 02:59N 40°08' W 074°49'0 0.0
2017-Oct-09 02:20N 40°08' W 074°49'0 0.0
2017-Oct-09 01:59N 40°08' W 074°49'0 0.0
2017-Oct-09 01:29N 40°08' W 074°49'0 0.0
2017-Oct-09 00:59N 40°08' W 074°49'0 0.0
2017-Oct-09 00:29N 40°08' W 074°49'0 0.0
2017-Oct-08 23:59N 40°08' W 074°49'0 0.0
2017-Oct-08 23:29N 40°08' W 074°49'0 0.0
2017-Oct-08 22:53N 40°08' W 074°49'0 0.0
2017-Oct-08 22:29N 40°08' W 074°49'0 0.0
2017-Oct-08 21:59N 40°08' W 074°49'0 0.0
2017-Oct-08 21:29N 40°08' W 074°49'0 0.0
2017-Oct-08 20:59N 40°08' W 074°49'0 0.0
2017-Oct-08 20:29N 40°08' W 074°49'0 0.0
2017-Oct-08 19:59N 40°08' W 074°49'0 0.0
2017-Oct-08 19:29N 40°08' W 074°49'0 0.0
2017-Oct-08 18:59N 40°08' W 074°49'0 0.0
2017-Oct-08 18:29N 40°08' W 074°49'0 0.0
2017-Oct-08 17:59N 40°08' W 074°49'0 0.0
2017-Oct-08 17:29N 40°08' W 074°49'0 0.0
2017-Oct-08 16:59N 40°08' W 074°49'0 0.0
2017-Oct-08 16:29N 40°08' W 074°49'0 0.0
2017-Oct-08 15:59N 40°08' W 074°49'0 0.0
2017-Oct-08 15:29N 40°08' W 074°49'0 0.0
2017-Oct-08 14:59N 40°08' W 074°49'0 0.0
2017-Oct-08 14:29N 40°08' W 074°49'0 0.0
2017-Oct-08 13:59N 40°08' W 074°49'0 0.0
2017-Oct-08 13:29N 40°08' W 074°49'0 0.0
2017-Oct-08 12:59N 40°08' W 074°49'0 0.0
2017-Oct-08 12:29N 40°08' W 074°49'0 0.0
2017-Oct-08 11:56N 40°08' W 074°49'0 0.0
2017-Oct-08 11:29N 40°08' W 074°49'0 0.0
2017-Oct-08 10:59N 40°08' W 074°49'0 0.0
2017-Oct-08 10:29N 40°08' W 074°49'0 0.0
2017-Oct-08 09:59N 40°08' W 074°49'0 0.0
2017-Oct-08 09:29N 40°08' W 074°49'0 0.0
2017-Oct-08 08:59N 40°08' W 074°49'0 0.0
2017-Oct-08 08:29N 40°08' W 074°49'0 0.0
2017-Oct-08 07:59N 40°08' W 074°49'0 0.0
2017-Oct-08 07:29N 40°08' W 074°49'0 0.0
2017-Oct-08 06:59N 40°08' W 074°49'0 0.0
2017-Oct-08 06:29N 40°08' W 074°49'0 0.0
2017-Oct-08 05:59N 40°08' W 074°49'0 0.0
2017-Oct-08 05:29N 40°08' W 074°49'0 0.0
2017-Oct-08 04:59N 40°08' W 074°49'0 0.0
2017-Oct-08 04:17N 40°08' W 074°49'0 0.0
2017-Oct-08 03:59N 40°08' W 074°49'0 0.0
2017-Oct-08 03:23N 40°08' W 074°49'0 0.0
2017-Oct-08 02:56N 40°08' W 074°49'0 0.0
2017-Oct-08 02:29N 40°08' W 074°49'0 0.0
2017-Oct-08 01:59N 40°08' W 074°49'0 0.0
2017-Oct-08 01:29N 40°08' W 074°49'0 0.0
2017-Oct-08 00:59N 40°08' W 074°49'0 0.0
2017-Oct-08 00:29N 40°08' W 074°49'0 0.0
2017-Oct-07 23:59N 40°08' W 074°49'0 0.0
2017-Oct-07 23:29N 40°08' W 074°49'0 0.0
2017-Oct-07 22:59N 40°08' W 074°49'0 0.0
2017-Oct-07 22:29N 40°08' W 074°49'0 0.0
2017-Oct-07 21:59N 40°08' W 074°49'0 0.0
2017-Oct-07 21:29N 40°08' W 074°49'0 0.0
2017-Oct-07 20:59N 40°08' W 074°49'0 0.0
2017-Oct-07 20:29N 40°08' W 074°49'0 0.0
2017-Oct-07 19:59N 40°08' W 074°49'0 0.0
2017-Oct-07 19:29N 40°08' W 074°49'0 0.0
2017-Oct-07 18:59N 40°08' W 074°49'  

Dump ship's entire track history